»·PEaware :: BAW1 PHNL-KSFO

BAW1 :: PHNL-KSFO

FLIGHT INFORMATION

Flight Status: Arrived
Operator:
British Airways
More flights by this operator :: More flights under this callsign
Pilot: Alex C. (14758)
Aircraft: AÉROSPATIALE-BAC CONCORDE
(CONC)
More flights by this aircraft type
Origin: PHNL Honolulu Intl
United States
Destination: KSFO San Francisco Intl
United States
More flights between these airports :: More routes between these airports
Route: +MKK4 CLUTS R465 CINNY PIRAT OSI
File this flight plan on PilotEdge
Remarks: Will keep under Mach 1 approaching contiguous U.S.
Altitude:
(Current/Filed)
59,000ft
Speed:
(Current/Filed)
1100kts
Departed: 26-Oct-18 10:35 AM
Arrived: 26-Oct-18 11:55 AM
Distance/Time
Traveled:
2081nm/1:19
Distance/Time
To Go:
Arrived

Flight Plot

Page will automatically refresh every two minutes.

Flight plan parsing failed; only flown route is shown


Map Options




Map Legend


Flown Route
Filed Route
Departure Airport
Arrival Airport
Navaid (VOR, NDB)
Fix

Horizontal Profiles

Position Reports

Time Latitude Longitude Heading Altitude Ground
Speed
26-Oct-18 10:36 31.590878 -137.951537 64 60238ft 1236kts
26-Oct-18 10:37 31.740317 -137.589608 64 60243ft 1236kts
26-Oct-18 10:38 31.889202 -137.225362 65 60235ft 1236kts
26-Oct-18 10:39 32.036172 -136.862057 65 60242ft 1231kts
26-Oct-18 10:40 32.181718 -136.498644 64 60240ft 1229kts
26-Oct-18 10:41 32.325826 -136.135024 65 60236ft 1229kts
26-Oct-18 10:42 32.468822 -135.770423 65 60238ft 1229kts
26-Oct-18 10:43 32.608586 -135.410306 65 60242ft 1198kts
26-Oct-18 10:44 32.746310 -135.051684 65 58865ft 1195kts
26-Oct-18 10:45 32.876945 -134.708051 65 56484ft 1027kts
26-Oct-18 10:46 32.973592 -134.451534 65 54457ft 1005kts
26-Oct-18 10:47 33.088023 -134.145287 66 52018ft 1051kts
26-Oct-18 10:48 33.204633 -133.830249 66 49541ft 1072kts
26-Oct-18 10:49 33.320357 -133.514753 66 47076ft 1008kts
26-Oct-18 10:50 33.428710 -133.216621 67 44612ft 953kts
26-Oct-18 10:51 33.529937 -132.935606 67 42132ft 887kts
26-Oct-18 10:52 33.624854 -132.669963 67 41223ft 870kts
26-Oct-18 10:53 33.719460 -132.402971 67 41225ft 870kts
26-Oct-18 10:54 33.812631 -132.137856 67 41220ft 870kts
26-Oct-18 10:55 33.906872 -131.867435 67 41222ft 870kts
26-Oct-18 10:56 33.999472 -131.599463 67 41225ft 870kts
26-Oct-18 10:57 34.091672 -131.330375 68 41225ft 870kts
26-Oct-18 10:58 34.270328 -130.802298 67 41218ft 855kts
26-Oct-18 10:59 34.357590 -130.541096 67 41221ft 833kts
26-Oct-18 11:00 34.443350 -130.282205 68 41216ft 833kts
26-Oct-18 11:01 34.613947 -129.760603 68 41269ft 833kts
26-Oct-18 11:02 34.780268 -129.243324 69 41188ft 643kts
26-Oct-18 11:03 34.845935 -129.036550 69 41183ft 659kts
26-Oct-18 11:04 34.920631 -128.799653 68 41130ft 838kts
26-Oct-18 11:05 35.000438 -128.544430 69 40190ft 797kts
26-Oct-18 11:06 35.075813 -128.301339 69 39263ft 787kts
26-Oct-18 11:07 35.150182 -128.059483 69 38282ft 770kts
26-Oct-18 11:08 35.223707 -127.818388 69 37289ft 752kts
26-Oct-18 11:09 35.294360 -127.584803 69 36322ft 736kts
26-Oct-18 11:10 35.362688 -127.357083 69 35374ft 723kts
26-Oct-18 11:11 35.430680 -127.128632 70 34371ft 708kts
26-Oct-18 11:12 35.496176 -126.906880 69 33380ft 690kts
26-Oct-18 11:13 35.550851 -126.720409 69 33185ft 688kts
26-Oct-18 11:14 35.615197 -126.499351 69 33186ft 688kts
26-Oct-18 11:15 35.678769 -126.279230 70 33180ft 688kts
26-Oct-18 11:16 35.740559 -126.068205 66 33175ft 687kts
26-Oct-18 11:17 35.815285 -125.851114 66 33184ft 688kts
26-Oct-18 11:18 35.889115 -125.634395 66 33186ft 688kts
26-Oct-18 11:19 35.956812 -125.434313 66 31918ft 619kts
26-Oct-18 11:20 36.017405 -125.254103 67 30480ft 566kts
26-Oct-18 11:21 36.072489 -125.089322 67 29092ft 554kts
26-Oct-18 11:22 36.123553 -124.935703 67 27992ft 542kts
26-Oct-18 11:23 36.176463 -124.777603 62 27052ft 529kts
26-Oct-18 11:24 36.243511 -124.654044 53 26229ft 522kts
26-Oct-18 11:25 36.340976 -124.485779 53 25078ft 513kts
26-Oct-18 11:26 36.407301 -124.370939 53 24236ft 466kts
26-Oct-18 11:27 36.482104 -124.240996 54 23231ft 460kts
26-Oct-18 11:28 36.555508 -124.112983 54 22227ft 452kts
26-Oct-18 11:29 36.624646 -123.991965 54 21209ft 420kts
26-Oct-18 11:30 36.691211 -123.875042 54 20204ft 411kts
26-Oct-18 11:31 36.753852 -123.764640 54 19244ft 390kts
26-Oct-18 11:32 36.812123 -123.661616 54 19183ft 367kts
26-Oct-18 11:33 36.871015 -123.557175 54 19184ft 367kts
26-Oct-18 11:34 36.928677 -123.454603 54 19185ft 367kts
26-Oct-18 11:35 36.987048 -123.350447 54 18924ft 368kts
26-Oct-18 11:36 37.044594 -123.247459 54 17748ft 337kts
26-Oct-18 11:37 37.097595 -123.152326 55 16257ft 332kts
26-Oct-18 11:38 37.134701 -123.085495 54 15124ft 325kts
26-Oct-18 11:39 37.184487 -122.995713 53 13330ft 305kts
26-Oct-18 11:40 37.231363 -122.911026 54 11546ft 292kts
26-Oct-18 11:41 37.264256 -122.832060 72 9981ft 250kts
26-Oct-18 11:42 37.284503 -122.748109 73 10009ft 253kts
26-Oct-18 11:43 37.303740 -122.665958 73 10009ft 252kts
26-Oct-18 11:44 37.323420 -122.581260 73 9973ft 253kts
26-Oct-18 11:45 37.342607 -122.498341 73 9910ft 253kts
26-Oct-18 11:46 37.359801 -122.423670 73 9430ft 251kts
26-Oct-18 11:47 37.374385 -122.359611 73 8586ft 236kts
26-Oct-18 11:48 37.386100 -122.308303 73 7542ft 222kts
26-Oct-18 11:49 37.397762 -122.257474 71 6477ft 208kts
26-Oct-18 11:50 37.419205 -122.207699 59 5302ft 205kts
26-Oct-18 11:51 37.452221 -122.178402 23 4211ft 201kts
26-Oct-18 11:52 37.498138 -122.155984 359 3109ft 195kts
26-Oct-18 11:53 37.540981 -122.185394 292 3054ft 201kts
26-Oct-18 11:54 37.563286 -122.243217 298 2079ft 196kts
26-Oct-18 11:55 37.585298 -122.295572 298 1098ft 168kts
26-Oct-18 11:56 37.606388 -122.345929 297 173ft 167kts
26-Oct-18 11:57 37.619759 -122.377592 292 25ft 37kts
26-Oct-18 11:58 37.619144 -122.380697 283 25ft 13kts
26-Oct-18 11:59 37.620973 -122.385281 298 25ft 13kts
26-Oct-18 12:00 37.621073 -122.386790 240 25ft 0kts
26-Oct-18 12:01 37.621079 -122.386778 240 25ft 0kts
26-Oct-18 12:02 37.621079 -122.386777 240 25ft 0kts

Navigation Log

Ident Type
Flight plan parsing failed, navigation log unavailable